createdAt,value
2022-10-26T00:00:39.116Z,11.27
2022-10-26T00:01:39.232Z,11.27
2022-10-26T00:02:39.185Z,11.2
2022-10-26T00:03:39.071Z,11.2
2022-10-26T00:04:39.126Z,11.2
2022-10-26T00:05:39.143Z,11.2
2022-10-26T00:06:39.133Z,11.13
2022-10-26T00:08:39.156Z,11.2
2022-10-26T00:09:39.165Z,11.13
2022-10-26T00:10:39.175Z,11.13
2022-10-26T00:11:39.137Z,11.13
2022-10-26T00:12:39.181Z,11.13
2022-10-26T00:13:39.063Z,11.13
2022-10-26T00:14:39.112Z,11.13
2022-10-26T00:15:39.076Z,11.2
2022-10-26T00:16:39.090Z,11.2
2022-10-26T00:17:39.073Z,11.2
2022-10-26T00:18:39.111Z,11.2
2022-10-26T00:19:39.216Z,11.2
2022-10-26T00:20:39.133Z,11.2
2022-10-26T00:21:39.138Z,11.2
2022-10-26T00:22:39.136Z,11.2
2022-10-26T00:23:39.158Z,11.2
2022-10-26T00:24:39.159Z,11.2
2022-10-26T00:25:39.186Z,11.27
2022-10-26T00:26:39.087Z,11.27
2022-10-26T00:27:39.187Z,11.27
2022-10-26T00:28:39.351Z,11.27
2022-10-26T00:29:39.397Z,11.2
2022-10-26T00:30:39.096Z,11.2
2022-10-26T00:31:39.097Z,11.2
2022-10-26T00:33:39.470Z,11.2
2022-10-26T00:34:39.133Z,11.27
2022-10-26T00:35:45.898Z,11.27
2022-10-26T00:36:39.129Z,11.27
2022-10-26T00:37:39.134Z,11.27
2022-10-26T00:38:39.145Z,11.27
2022-10-26T00:39:39.103Z,11.27
2022-10-26T00:40:39.478Z,11.2
2022-10-26T00:41:39.184Z,11.2
2022-10-26T00:42:39.114Z,11.2
2022-10-26T00:43:39.183Z,11.27
2022-10-26T00:44:39.184Z,11.27
2022-10-26T00:45:39.187Z,11.27
2022-10-26T00:46:39.086Z,11.2
2022-10-26T00:47:39.079Z,11.2
2022-10-26T00:48:39.088Z,11.2
2022-10-26T00:49:39.112Z,11.2
2022-10-26T00:50:39.213Z,11.27
2022-10-26T00:51:39.135Z,11.27
2022-10-26T00:52:39.081Z,11.2
2022-10-26T00:53:39.231Z,11.27
2022-10-26T00:54:39.178Z,11.2
2022-10-26T00:55:39.090Z,11.27
2022-10-26T00:56:39.196Z,11.27
2022-10-26T00:57:39.168Z,11.27
2022-10-26T00:58:39.178Z,11.2
2022-10-26T00:59:39.121Z,11.2
2022-10-26T01:00:39.194Z,11.27
2022-10-26T01:01:39.260Z,11.27
2022-10-26T01:02:39.201Z,11.27
2022-10-26T01:03:39.144Z,11.34
2022-10-26T01:04:39.105Z,11.27
2022-10-26T01:05:39.096Z,11.27
2022-10-26T01:06:41.179Z,11.27
2022-10-26T01:07:39.225Z,11.34
2022-10-26T01:08:39.142Z,11.27
2022-10-26T01:09:39.075Z,11.34
2022-10-26T01:10:39.142Z,11.34
2022-10-26T01:11:39.167Z,11.34
2022-10-26T01:12:39.162Z,11.34
2022-10-26T01:13:39.166Z,11.34
2022-10-26T01:14:39.195Z,11.34
2022-10-26T01:15:39.190Z,11.34
2022-10-26T01:16:40.803Z,11.34
2022-10-26T01:17:39.193Z,11.34
2022-10-26T01:18:39.198Z,11.27
2022-10-26T01:19:39.102Z,11.34
2022-10-26T01:20:39.111Z,11.41
2022-10-26T01:21:39.214Z,11.34
2022-10-26T01:22:39.213Z,11.34
2022-10-26T01:23:39.089Z,11.34
2022-10-26T01:24:39.098Z,11.34
2022-10-26T01:25:39.158Z,11.34
2022-10-26T01:26:39.221Z,11.34
2022-10-26T01:27:39.182Z,11.27
2022-10-26T01:28:39.102Z,11.27
2022-10-26T01:29:39.150Z,11.34
2022-10-26T01:30:39.234Z,11.27
2022-10-26T01:31:39.399Z,11.34
2022-10-26T01:32:39.180Z,11.34
2022-10-26T01:33:39.093Z,11.34
2022-10-26T01:34:39.196Z,11.41
2022-10-26T01:35:39.227Z,11.41
2022-10-26T01:36:39.101Z,11.41
2022-10-26T01:37:39.211Z,11.34
2022-10-26T01:38:39.224Z,11.34
2022-10-26T01:39:39.129Z,11.34
2022-10-26T01:40:39.086Z,11.34
2022-10-26T01:41:39.151Z,11.34
2022-10-26T01:42:39.151Z,11.34
2022-10-26T01:43:39.158Z,11.41
2022-10-26T01:44:39.166Z,11.41
2022-10-26T01:45:39.162Z,11.41
2022-10-26T01:46:39.178Z,11.34
2022-10-26T01:47:39.181Z,11.41
2022-10-26T01:48:39.186Z,11.34
2022-10-26T01:49:39.194Z,11.34
2022-10-26T01:50:39.091Z,11.34
2022-10-26T01:51:39.094Z,11.34
2022-10-26T01:52:39.108Z,11.34
2022-10-26T01:53:39.152Z,11.41
2022-10-26T01:54:39.139Z,11.34
2022-10-26T01:55:39.138Z,11.41
2022-10-26T01:56:39.149Z,11.41
2022-10-26T01:57:39.219Z,11.41
2022-10-26T01:58:39.189Z,11.41
2022-10-26T01:59:39.184Z,11.41
2022-10-26T02:00:39.170Z,11.41
2022-10-26T02:01:39.242Z,11.41
2022-10-26T02:02:39.096Z,11.41
2022-10-26T02:03:39.287Z,11.48
2022-10-26T02:04:39.178Z,11.48
2022-10-26T02:05:39.082Z,11.48
2022-10-26T02:06:39.096Z,11.41
2022-10-26T02:07:39.102Z,11.48
2022-10-26T02:08:39.204Z,11.48
2022-10-26T02:09:39.237Z,11.48
2022-10-26T02:10:39.115Z,11.48
2022-10-26T02:11:39.139Z,11.48
2022-10-26T02:12:39.133Z,11.41
2022-10-26T02:13:41.137Z,11.41
2022-10-26T02:14:39.151Z,11.41
2022-10-26T02:15:39.157Z,11.48
2022-10-26T02:16:39.144Z,11.41
2022-10-26T02:17:39.136Z,11.41
2022-10-26T02:18:39.168Z,11.41
2022-10-26T02:19:39.170Z,11.48
2022-10-26T02:20:39.181Z,11.48
2022-10-26T02:21:39.188Z,11.48
2022-10-26T02:22:39.207Z,11.55
2022-10-26T02:23:39.195Z,11.48
2022-10-26T02:24:39.221Z,11.48
2022-10-26T02:25:39.209Z,11.55
2022-10-26T02:26:39.236Z,11.48
2022-10-26T02:27:39.375Z,11.55
2022-10-26T02:28:39.299Z,11.55
2022-10-26T02:29:39.301Z,11.48
2022-10-26T02:30:39.197Z,11.41
2022-10-26T02:31:39.157Z,11.48
2022-10-26T02:32:39.163Z,11.41
2022-10-26T02:33:39.328Z,11.41
2022-10-26T02:34:39.173Z,11.41
2022-10-26T02:35:39.179Z,11.41
2022-10-26T02:36:39.194Z,11.41
2022-10-26T02:37:39.198Z,11.48
2022-10-26T02:38:39.197Z,11.48
2022-10-26T02:39:39.209Z,11.48
2022-10-26T02:40:39.217Z,11.48
2022-10-26T02:41:39.114Z,11.48
2022-10-26T02:42:39.126Z,11.48
2022-10-26T02:43:39.105Z,11.48
2022-10-26T02:44:39.133Z,11.48
2022-10-26T02:45:39.086Z,11.48
2022-10-26T02:46:39.156Z,11.48
2022-10-26T02:47:39.251Z,11.55
2022-10-26T02:48:39.163Z,11.55
2022-10-26T02:49:39.160Z,11.48
2022-10-26T02:50:39.181Z,11.48
2022-10-26T02:51:39.248Z,11.48
2022-10-26T02:52:39.193Z,11.48
2022-10-26T02:53:39.199Z,11.55
2022-10-26T02:54:39.095Z,11.55
2022-10-26T02:55:39.215Z,11.55
2022-10-26T02:56:39.214Z,11.55
2022-10-26T02:57:39.107Z,11.55
2022-10-26T02:58:39.138Z,11.48
2022-10-26T02:59:39.128Z,11.48
2022-10-26T03:00:39.130Z,11.55
2022-10-26T03:01:39.193Z,11.48
2022-10-26T03:02:39.146Z,11.48
2022-10-26T03:03:39.181Z,11.48
2022-10-26T03:04:39.175Z,11.48
2022-10-26T03:05:39.171Z,11.48
2022-10-26T03:06:39.087Z,11.48
2022-10-26T03:07:39.121Z,11.48
2022-10-26T03:08:39.094Z,11.48
2022-10-26T03:09:39.241Z,11.55
2022-10-26T03:10:39.202Z,11.55
2022-10-26T03:11:39.150Z,11.48
2022-10-26T03:12:39.102Z,11.48
2022-10-26T03:13:39.112Z,11.48
2022-10-26T03:14:39.126Z,11.48
2022-10-26T03:15:39.157Z,11.55
2022-10-26T03:16:39.156Z,11.55
2022-10-26T03:17:39.096Z,11.55
2022-10-26T03:18:39.241Z,11.55
2022-10-26T03:19:39.132Z,11.55
2022-10-26T03:20:41.128Z,11.55
2022-10-26T03:21:39.115Z,11.62
2022-10-26T03:22:39.106Z,11.55
2022-10-26T03:23:39.099Z,11.55
2022-10-26T03:24:39.117Z,11.55
2022-10-26T03:25:39.107Z,11.55
2022-10-26T03:26:39.152Z,11.55
2022-10-26T03:27:39.152Z,11.55
2022-10-26T03:28:39.105Z,11.48
2022-10-26T03:29:39.095Z,11.55
2022-10-26T03:30:39.106Z,11.55
2022-10-26T03:31:39.131Z,11.55
2022-10-26T03:32:39.115Z,11.55
2022-10-26T03:33:39.120Z,11.55
2022-10-26T03:34:39.157Z,11.55
2022-10-26T03:35:39.136Z,11.55
2022-10-26T03:36:39.091Z,11.55
2022-10-26T03:37:39.097Z,11.55
2022-10-26T03:38:39.178Z,11.55
2022-10-26T03:39:39.182Z,11.55
2022-10-26T03:40:39.209Z,11.55
2022-10-26T03:41:39.192Z,11.62
2022-10-26T03:42:39.200Z,11.62
2022-10-26T03:43:39.100Z,11.55
2022-10-26T03:44:39.111Z,11.55
2022-10-26T03:45:39.105Z,11.55
2022-10-26T03:46:39.115Z,11.55
2022-10-26T03:47:39.133Z,11.62
2022-10-26T03:48:39.139Z,11.62
2022-10-26T03:49:39.124Z,11.62
2022-10-26T03:50:39.254Z,11.62
2022-10-26T03:51:39.170Z,11.55
2022-10-26T03:52:39.162Z,11.55
2022-10-26T03:53:39.177Z,11.55
2022-10-26T03:54:39.178Z,11.55
2022-10-26T03:55:39.180Z,11.55
2022-10-26T03:56:39.106Z,11.55
2022-10-26T03:57:39.157Z,11.62
2022-10-26T03:58:39.137Z,11.62
2022-10-26T03:59:39.126Z,11.62
2022-10-26T04:00:39.219Z,11.62
2022-10-26T04:01:39.170Z,11.69
2022-10-26T04:02:39.129Z,11.69
2022-10-26T04:03:39.241Z,11.69
2022-10-26T04:04:39.169Z,11.69
2022-10-26T04:05:39.261Z,11.62
2022-10-26T04:06:39.315Z,11.62
2022-10-26T04:07:39.149Z,11.62
2022-10-26T04:08:39.106Z,11.69
2022-10-26T04:09:39.167Z,11.69
2022-10-26T04:10:39.196Z,11.69
2022-10-26T04:11:39.102Z,11.69
2022-10-26T04:12:39.198Z,11.69
2022-10-26T04:13:39.189Z,11.69
2022-10-26T04:14:39.205Z,11.62
2022-10-26T04:15:39.207Z,11.62
2022-10-26T04:16:39.103Z,11.69
2022-10-26T04:17:39.236Z,11.69
2022-10-26T04:18:39.228Z,11.69
2022-10-26T04:19:39.131Z,11.69
2022-10-26T04:20:39.146Z,11.69
2022-10-26T04:21:39.141Z,11.69
2022-10-26T04:22:39.099Z,11.69
2022-10-26T04:23:39.102Z,11.69
2022-10-26T04:24:39.111Z,11.77
2022-10-26T04:25:39.095Z,11.84
2022-10-26T04:26:39.092Z,11.84
2022-10-26T04:27:41.157Z,11.84
2022-10-26T04:28:39.199Z,11.84
2022-10-26T04:29:39.201Z,11.84
2022-10-26T04:30:39.205Z,11.77
2022-10-26T04:31:39.280Z,11.84
2022-10-26T04:32:39.120Z,11.84
2022-10-26T04:33:39.107Z,11.84
2022-10-26T04:34:39.107Z,11.84
2022-10-26T04:35:39.326Z,11.84
2022-10-26T04:36:39.237Z,11.84
2022-10-26T04:37:39.311Z,11.77
2022-10-26T04:38:39.400Z,11.77
2022-10-26T04:39:39.378Z,11.84
2022-10-26T04:40:39.421Z,11.84
2022-10-26T04:41:39.178Z,11.84
2022-10-26T04:42:39.121Z,11.84
2022-10-26T04:43:39.197Z,11.77
2022-10-26T04:44:39.192Z,11.77
2022-10-26T04:45:39.157Z,11.77
2022-10-26T04:46:39.202Z,11.84
2022-10-26T04:47:39.241Z,11.84
2022-10-26T04:48:39.242Z,11.84
2022-10-26T04:49:39.128Z,11.84
2022-10-26T04:50:39.135Z,11.84
2022-10-26T04:51:39.132Z,11.84
2022-10-26T04:52:39.172Z,11.91
2022-10-26T04:53:39.144Z,11.91
2022-10-26T04:54:39.095Z,11.91
2022-10-26T04:55:39.158Z,11.84
2022-10-26T04:56:39.248Z,11.84
2022-10-26T04:57:39.118Z,11.84
2022-10-26T04:58:39.118Z,11.84
2022-10-26T04:59:39.198Z,11.84
2022-10-26T05:00:39.215Z,11.84
2022-10-26T05:01:39.425Z,11.84
2022-10-26T05:02:39.208Z,11.84
2022-10-26T05:03:39.213Z,11.84
2022-10-26T05:04:39.217Z,11.84
2022-10-26T05:05:39.137Z,11.84
2022-10-26T05:06:39.122Z,11.84
2022-10-26T05:07:39.230Z,11.91
2022-10-26T05:08:39.243Z,11.91
2022-10-26T05:09:39.178Z,11.91
2022-10-26T05:10:39.115Z,11.91
2022-10-26T05:11:39.104Z,11.91
2022-10-26T05:12:39.169Z,11.91
2022-10-26T05:13:39.304Z,11.84
2022-10-26T05:14:39.124Z,11.84
2022-10-26T05:15:39.187Z,11.91
2022-10-26T05:16:39.152Z,11.84
2022-10-26T05:17:39.194Z,11.91
2022-10-26T05:18:39.111Z,11.91
2022-10-26T05:19:39.238Z,11.91
2022-10-26T05:20:39.223Z,11.84
2022-10-26T05:21:39.203Z,11.84
2022-10-26T05:22:39.121Z,11.84
2022-10-26T05:23:39.233Z,11.84
2022-10-26T05:24:39.248Z,11.84
2022-10-26T05:25:39.169Z,11.84
2022-10-26T05:26:39.139Z,11.84
2022-10-26T05:27:39.173Z,11.84
2022-10-26T05:28:39.167Z,11.84
2022-10-26T05:29:39.199Z,11.91
2022-10-26T05:30:39.181Z,11.91
2022-10-26T05:31:39.196Z,11.91
2022-10-26T05:32:39.111Z,11.84
2022-10-26T05:33:39.112Z,11.84
2022-10-26T05:34:41.635Z,11.84
2022-10-26T05:35:39.112Z,11.91
2022-10-26T05:36:39.219Z,11.91
2022-10-26T05:37:39.124Z,11.91
2022-10-26T05:38:39.234Z,11.91
2022-10-26T05:39:39.239Z,11.91
2022-10-26T05:40:39.148Z,11.91
2022-10-26T05:41:39.139Z,11.91
2022-10-26T05:42:39.154Z,11.91
2022-10-26T05:43:39.167Z,11.91
2022-10-26T05:44:39.167Z,11.91
2022-10-26T05:45:39.113Z,11.91
2022-10-26T05:46:39.250Z,11.91
2022-10-26T05:47:39.148Z,11.91
2022-10-26T05:48:39.109Z,11.99
2022-10-26T05:49:39.214Z,11.99
2022-10-26T05:50:39.232Z,11.99
2022-10-26T05:51:39.211Z,11.99
2022-10-26T05:52:39.222Z,11.99
2022-10-26T05:53:39.119Z,11.99
2022-10-26T05:54:39.241Z,11.99
2022-10-26T05:55:39.159Z,11.91
2022-10-26T05:56:39.134Z,11.99
2022-10-26T05:57:39.140Z,11.99
2022-10-26T05:58:39.163Z,11.99
2022-10-26T05:59:39.125Z,11.99
2022-10-26T06:00:39.136Z,11.99
2022-10-26T06:01:39.315Z,11.99
2022-10-26T06:02:39.227Z,11.99
2022-10-26T06:03:39.231Z,11.99
2022-10-26T06:04:39.196Z,11.99
2022-10-26T06:05:39.207Z,11.99
2022-10-26T06:06:39.210Z,11.99
2022-10-26T06:07:39.208Z,11.99
2022-10-26T06:08:39.115Z,11.99
2022-10-26T06:09:39.145Z,11.99
2022-10-26T06:10:39.252Z,11.91
2022-10-26T06:11:39.253Z,11.91
2022-10-26T06:12:39.117Z,11.91
2022-10-26T06:13:39.119Z,11.91
2022-10-26T06:14:39.111Z,11.91
2022-10-26T06:15:39.110Z,11.91
2022-10-26T06:16:39.109Z,11.91
2022-10-26T06:17:39.172Z,11.91
2022-10-26T06:18:39.141Z,11.91
2022-10-26T06:19:39.288Z,11.84
2022-10-26T06:20:39.116Z,11.84
2022-10-26T06:21:39.236Z,11.77
2022-10-26T06:22:39.113Z,11.77
2022-10-26T06:23:39.171Z,11.84
2022-10-26T06:24:39.120Z,11.84
2022-10-26T06:25:39.190Z,11.84
2022-10-26T06:26:39.212Z,11.84
2022-10-26T06:27:39.135Z,11.77
2022-10-26T06:28:39.111Z,11.77
2022-10-26T06:29:39.161Z,11.77
2022-10-26T06:30:39.119Z,11.84
2022-10-26T06:31:39.121Z,11.84
2022-10-26T06:32:39.101Z,11.84
2022-10-26T06:33:39.152Z,11.77
2022-10-26T06:34:39.112Z,11.84
2022-10-26T06:35:39.199Z,11.91
2022-10-26T06:36:39.124Z,11.84
2022-10-26T06:37:39.203Z,11.84
2022-10-26T06:38:39.227Z,11.84
2022-10-26T06:39:39.684Z,11.84
2022-10-26T06:40:39.218Z,11.84
2022-10-26T06:41:41.194Z,11.84
2022-10-26T06:42:39.145Z,11.84
2022-10-26T06:43:39.146Z,11.91
2022-10-26T06:44:39.155Z,11.99
2022-10-26T06:45:39.119Z,11.91
2022-10-26T06:46:39.148Z,11.91
2022-10-26T06:47:39.181Z,11.91
2022-10-26T06:48:39.168Z,11.84
2022-10-26T06:49:39.173Z,11.84
2022-10-26T06:50:39.187Z,11.84
2022-10-26T06:51:39.190Z,11.84
2022-10-26T06:52:39.150Z,11.84
2022-10-26T06:54:39.214Z,11.84
2022-10-26T06:55:39.215Z,11.84
2022-10-26T06:56:39.169Z,11.77
2022-10-26T06:57:39.225Z,11.77
2022-10-26T06:58:39.134Z,11.84
2022-10-26T06:59:39.138Z,11.84
2022-10-26T07:00:39.132Z,11.77
2022-10-26T07:01:39.314Z,11.84
2022-10-26T07:02:39.222Z,11.84
2022-10-26T07:03:39.168Z,11.84
2022-10-26T07:04:39.296Z,11.84
2022-10-26T07:05:39.180Z,11.84
2022-10-26T07:06:39.584Z,11.91
2022-10-26T07:07:39.193Z,11.91
2022-10-26T07:08:39.201Z,11.84
2022-10-26T07:09:39.203Z,11.84
2022-10-26T07:10:39.227Z,11.84
2022-10-26T07:11:39.261Z,11.84
2022-10-26T07:12:39.214Z,11.91
2022-10-26T07:13:39.116Z,11.91
2022-10-26T07:14:39.130Z,11.91
2022-10-26T07:15:39.133Z,11.91
2022-10-26T07:16:39.178Z,11.91
2022-10-26T07:17:41.969Z,11.91
2022-10-26T07:18:39.157Z,11.91
2022-10-26T07:19:39.139Z,11.91
2022-10-26T07:20:39.164Z,11.91
2022-10-26T07:21:39.179Z,11.91
2022-10-26T07:22:39.286Z,11.91
2022-10-26T07:23:39.234Z,11.91
2022-10-26T07:24:39.377Z,11.99
2022-10-26T07:25:39.120Z,11.99
2022-10-26T07:26:39.137Z,11.99
2022-10-26T07:27:39.217Z,11.99
2022-10-26T07:28:39.225Z,11.99
2022-10-26T07:29:39.220Z,11.99
2022-10-26T07:30:39.239Z,12.06
2022-10-26T07:31:39.139Z,12.06
2022-10-26T07:32:39.140Z,12.06
2022-10-26T07:33:41.450Z,12.13
2022-10-26T07:34:39.163Z,12.13
2022-10-26T07:35:39.261Z,12.06
2022-10-26T07:36:39.170Z,12.06
2022-10-26T07:37:39.123Z,12.06
2022-10-26T07:38:39.177Z,12.13
2022-10-26T07:39:39.186Z,12.06
2022-10-26T07:40:39.206Z,12.13
2022-10-26T07:41:39.182Z,12.06
2022-10-26T07:42:41.074Z,12.13
2022-10-26T07:43:39.211Z,12.13
2022-10-26T07:44:39.233Z,12.13
2022-10-26T07:45:39.217Z,12.13
2022-10-26T07:46:39.126Z,12.06
2022-10-26T07:47:39.248Z,12.06
2022-10-26T07:48:41.198Z,12.13
2022-10-26T07:49:39.128Z,12.13
2022-10-26T07:50:39.121Z,12.13
2022-10-26T07:51:39.269Z,12.13
2022-10-26T07:52:39.170Z,12.13
2022-10-26T07:53:39.168Z,12.21
2022-10-26T07:54:39.206Z,12.13
2022-10-26T07:55:39.299Z,12.13
2022-10-26T07:56:39.188Z,12.13
2022-10-26T07:57:39.131Z,12.13
2022-10-26T07:58:39.209Z,12.21
2022-10-26T07:59:39.206Z,12.21
2022-10-26T08:00:39.173Z,12.28
2022-10-26T08:01:39.311Z,12.28
2022-10-26T08:02:39.134Z,12.28
2022-10-26T08:03:39.121Z,12.28
2022-10-26T08:04:39.139Z,12.36
2022-10-26T08:05:39.141Z,12.44
2022-10-26T08:06:39.264Z,12.44
2022-10-26T08:07:39.267Z,12.51
2022-10-26T08:08:42.454Z,12.51
2022-10-26T08:09:39.168Z,12.44
2022-10-26T08:10:39.181Z,12.44
2022-10-26T08:11:39.193Z,12.44
2022-10-26T08:12:39.316Z,12.44
2022-10-26T08:13:39.168Z,12.44
2022-10-26T08:14:39.185Z,12.36
2022-10-26T08:15:39.180Z,12.36
2022-10-26T08:16:39.128Z,12.28
2022-10-26T08:17:39.220Z,12.36
2022-10-26T08:18:39.230Z,12.36
2022-10-26T08:19:39.249Z,12.36
2022-10-26T08:20:39.246Z,12.36
2022-10-26T08:21:40.725Z,12.36
2022-10-26T08:22:39.173Z,12.36
2022-10-26T08:23:39.119Z,12.51
2022-10-26T08:24:39.126Z,12.51
2022-10-26T08:25:39.198Z,12.59
2022-10-26T08:26:39.196Z,12.67
2022-10-26T08:27:39.167Z,12.74
2022-10-26T08:28:39.194Z,12.82
2022-10-26T08:29:39.202Z,12.9
2022-10-26T08:30:39.210Z,12.9
2022-10-26T08:31:39.210Z,12.98
2022-10-26T08:32:39.222Z,12.98
2022-10-26T08:33:42.842Z,13.06
2022-10-26T08:34:39.245Z,13.06
2022-10-26T08:35:39.120Z,13.14
2022-10-26T08:36:39.138Z,13.14
2022-10-26T08:37:39.266Z,13.14
2022-10-26T08:38:39.255Z,13.14
2022-10-26T08:39:39.147Z,13.14
2022-10-26T08:40:39.129Z,13.14
2022-10-26T08:41:39.193Z,13.3
2022-10-26T08:42:39.193Z,13.38
2022-10-26T08:43:39.194Z,13.38
2022-10-26T08:44:39.201Z,13.54
2022-10-26T08:45:39.207Z,13.63
2022-10-26T08:46:39.208Z,13.63
2022-10-26T08:47:39.222Z,13.71
2022-10-26T08:48:39.220Z,13.63
2022-10-26T08:49:39.242Z,13.71
2022-10-26T08:50:40.650Z,13.79
2022-10-26T08:51:39.153Z,13.71
2022-10-26T08:52:39.138Z,13.79
2022-10-26T08:53:39.172Z,13.87
2022-10-26T08:54:39.163Z,13.87
2022-10-26T08:55:41.158Z,13.96
2022-10-26T08:56:39.214Z,13.96
2022-10-26T08:57:39.165Z,14.04
2022-10-26T08:58:39.204Z,13.96
2022-10-26T08:59:39.187Z,13.96
2022-10-26T09:00:39.275Z,13.96
2022-10-26T09:01:39.288Z,14.13
2022-10-26T09:02:39.134Z,14.13
2022-10-26T09:03:39.128Z,14.3
2022-10-26T09:04:39.145Z,14.38
2022-10-26T09:05:39.224Z,14.56
2022-10-26T09:06:39.143Z,14.65
2022-10-26T09:07:39.149Z,14.82
2022-10-26T09:08:39.179Z,14.73
2022-10-26T09:09:39.179Z,14.73
2022-10-26T09:10:39.155Z,14.82
2022-10-26T09:11:39.169Z,14.73
2022-10-26T09:12:39.175Z,14.73
2022-10-26T09:13:39.179Z,14.73
2022-10-26T09:14:39.124Z,14.73
2022-10-26T09:15:39.190Z,14.82
2022-10-26T09:16:39.178Z,14.91
2022-10-26T09:17:39.166Z,14.91
2022-10-26T09:18:39.268Z,14.82
2022-10-26T09:19:39.226Z,14.91
2022-10-26T09:20:39.132Z,15
2022-10-26T09:21:39.152Z,15.09
2022-10-26T09:22:39.229Z,15.09
2022-10-26T09:23:39.249Z,15
2022-10-26T09:24:39.249Z,15.18
2022-10-26T09:25:39.255Z,15.27
2022-10-26T09:26:39.157Z,15.27
2022-10-26T09:27:39.232Z,15.36
2022-10-26T09:28:39.174Z,15.36
2022-10-26T09:29:39.185Z,15.45
2022-10-26T09:30:39.223Z,15.45
2022-10-26T09:31:42.354Z,15.36
2022-10-26T09:32:39.516Z,15.45
2022-10-26T09:33:39.700Z,15.45
2022-10-26T09:34:39.143Z,15.27
2022-10-26T09:35:39.219Z,15.36
2022-10-26T09:36:39.239Z,15.36
2022-10-26T09:37:39.237Z,15.27
2022-10-26T09:38:39.237Z,15.09
2022-10-26T09:39:39.235Z,15.27
2022-10-26T09:40:39.195Z,15.18
2022-10-26T09:41:39.136Z,15.09
2022-10-26T09:42:39.165Z,15.09
2022-10-26T09:43:39.218Z,15.18
2022-10-26T09:44:39.172Z,15.09
2022-10-26T09:45:39.180Z,15.18
2022-10-26T09:46:39.153Z,15.27
2022-10-26T09:47:39.207Z,15.36
2022-10-26T09:48:39.310Z,15.55
2022-10-26T09:49:39.309Z,15.64
2022-10-26T09:50:39.218Z,15.64
2022-10-26T09:51:39.224Z,15.55
2022-10-26T09:52:39.228Z,15.55
2022-10-26T09:53:39.205Z,15.55
2022-10-26T09:54:39.146Z,15.73
2022-10-26T09:55:39.284Z,15.83
2022-10-26T09:56:39.264Z,15.83
2022-10-26T09:57:39.159Z,15.83
2022-10-26T09:58:39.178Z,15.83
2022-10-26T09:59:39.275Z,15.83
2022-10-26T10:00:39.150Z,15.83
2022-10-26T10:01:42.189Z,15.92
2022-10-26T10:02:41.469Z,15.83
2022-10-26T10:03:39.209Z,15.83
2022-10-26T10:04:39.211Z,15.92
2022-10-26T10:05:50.719Z,15.83
2022-10-26T10:06:39.204Z,15.92
2022-10-26T10:07:40.184Z,15.83
2022-10-26T10:08:39.227Z,15.92
2022-10-26T10:09:39.236Z,16.01
2022-10-26T10:10:39.234Z,16.3
2022-10-26T10:11:39.239Z,16.3
2022-10-26T10:12:39.243Z,16.3
2022-10-26T10:13:39.148Z,16.3
2022-10-26T10:14:39.878Z,16.5
2022-10-26T10:15:39.134Z,16.5
2022-10-26T10:16:39.171Z,16.59
2022-10-26T10:17:39.141Z,16.79
2022-10-26T10:18:39.189Z,16.79
2022-10-26T10:19:39.188Z,16.89
2022-10-26T10:20:39.200Z,16.79
2022-10-26T10:21:39.204Z,16.69
2022-10-26T10:22:39.206Z,16.59
2022-10-26T10:23:39.227Z,16.5
2022-10-26T10:24:39.197Z,16.5
2022-10-26T10:25:39.236Z,16.59
2022-10-26T10:26:39.252Z,16.59
2022-10-26T10:27:39.185Z,16.59
2022-10-26T10:28:39.154Z,16.79
2022-10-26T10:29:39.177Z,16.69
2022-10-26T10:30:39.157Z,16.89
2022-10-26T10:31:39.139Z,17.19
2022-10-26T10:32:41.427Z,17.29
2022-10-26T10:33:39.189Z,17.29
2022-10-26T10:34:39.290Z,17.15
2022-10-26T10:35:39.294Z,17.39
2022-10-26T10:36:39.204Z,17.6
2022-10-26T10:37:39.210Z,17.7
2022-10-26T10:38:39.193Z,17.62
2022-10-26T10:39:39.136Z,17.39
2022-10-26T10:40:39.224Z,16.66
2022-10-26T10:41:39.160Z,17.11
2022-10-26T10:42:39.231Z,16.59
2022-10-26T10:43:39.243Z,16.4
2022-10-26T10:44:39.150Z,16.94
2022-10-26T10:45:39.145Z,17.54
2022-10-26T10:46:39.188Z,17.11
2022-10-26T10:47:39.220Z,17.12
2022-10-26T10:48:39.501Z,17.42
2022-10-26T10:49:39.281Z,16.8
2022-10-26T10:50:39.285Z,16.67
2022-10-26T10:51:39.191Z,16.5
2022-10-26T10:52:39.313Z,16.98
2022-10-26T10:53:39.204Z,16.8
2022-10-26T10:54:39.143Z,16.52
2022-10-26T10:55:39.261Z,16.2
2022-10-26T10:56:39.219Z,16.53
2022-10-26T10:57:39.180Z,16.46
2022-10-26T10:58:39.190Z,16.58
2022-10-26T10:59:39.260Z,16.47
2022-10-26T11:00:39.280Z,16.44
2022-10-26T11:01:39.416Z,16.49
2022-10-26T11:02:39.261Z,16.78
2022-10-26T11:03:39.158Z,16.26
2022-10-26T11:04:39.185Z,16.49
2022-10-26T11:05:39.201Z,16.36
2022-10-26T11:06:39.188Z,16.12
2022-10-26T11:07:39.191Z,16.2
2022-10-26T11:08:39.197Z,16.31
2022-10-26T11:09:41.245Z,16.29
2022-10-26T11:10:39.224Z,17.34
2022-10-26T11:11:41.809Z,16.86
2022-10-26T11:12:39.157Z,16.4
2022-10-26T11:13:39.234Z,16.49
2022-10-26T11:14:39.241Z,15.77
2022-10-26T11:15:39.256Z,15.78
2022-10-26T11:16:39.200Z,15.83
2022-10-26T11:17:39.252Z,15.6
2022-10-26T11:18:39.280Z,16.06
2022-10-26T11:19:39.163Z,15.31
2022-10-26T11:20:39.265Z,15.34
2022-10-26T11:21:39.198Z,15.25
2022-10-26T11:22:39.196Z,15.26
2022-10-26T11:23:39.200Z,15.37
2022-10-26T11:24:39.214Z,15.37
2022-10-26T11:25:39.174Z,14.97
2022-10-26T11:26:42.401Z,14.69
2022-10-26T11:27:39.218Z,14.13
2022-10-26T11:28:39.225Z,14.09
2022-10-26T11:29:40.317Z,14.27
2022-10-26T11:30:39.166Z,14.66
2022-10-26T11:31:39.269Z,13.87
2022-10-26T11:32:39.264Z,14.19
2022-10-26T11:33:39.443Z,13.86
2022-10-26T11:34:39.398Z,13.78
2022-10-26T11:35:39.397Z,13.69
2022-10-26T11:36:39.426Z,13.32
2022-10-26T11:38:46.689Z,13.24
2022-10-26T11:39:39.158Z,13.01
2022-10-26T11:40:39.201Z,13.45
2022-10-26T11:41:39.205Z,13.54
2022-10-26T11:42:39.220Z,13.47
2022-10-26T11:43:39.221Z,13.42
2022-10-26T11:44:39.236Z,13.74
2022-10-26T11:45:39.234Z,13.78
2022-10-26T11:46:39.234Z,13.98
2022-10-26T11:47:39.243Z,13.6
2022-10-26T11:48:39.154Z,13.54
2022-10-26T11:49:39.149Z,13.59
2022-10-26T11:50:39.258Z,13.45
2022-10-26T11:51:39.214Z,13.63
2022-10-26T11:52:39.162Z,13.95
2022-10-26T11:53:39.303Z,13.77
2022-10-26T11:54:39.186Z,13.77
2022-10-26T11:55:39.199Z,13.87
2022-10-26T11:56:39.208Z,13.95
2022-10-26T11:57:39.204Z,13.84
2022-10-26T11:58:39.206Z,13.77
2022-10-26T11:59:39.212Z,13.52
2022-10-26T12:00:39.189Z,13.65
2022-10-26T12:01:39.250Z,13.47
2022-10-26T12:02:39.438Z,13.6
2022-10-26T12:03:39.158Z,13.74
2022-10-26T12:04:39.170Z,13.62
2022-10-26T12:05:39.251Z,13.55
2022-10-26T12:06:39.275Z,13.08
2022-10-26T12:07:39.272Z,13.29
2022-10-26T12:08:39.173Z,13.5
2022-10-26T12:09:39.278Z,13.18
2022-10-26T12:10:39.191Z,13.04
2022-10-26T12:11:39.212Z,12.81
2022-10-26T12:12:39.213Z,12.94
2022-10-26T12:13:39.209Z,12.84
2022-10-26T12:14:39.312Z,13.06
2022-10-26T12:16:01.647Z,12.98
2022-10-26T12:16:41.190Z,12.91
2022-10-26T12:17:39.230Z,13.28
2022-10-26T12:18:56.365Z,12.5
2022-10-26T12:19:39.254Z,12.55
2022-10-26T12:20:39.255Z,12.58
2022-10-26T12:21:39.255Z,12.64
2022-10-26T12:22:39.262Z,12.9
2022-10-26T12:23:40.750Z,12.56
2022-10-26T12:24:39.195Z,12.56
2022-10-26T12:25:39.160Z,12.5
2022-10-26T12:26:39.165Z,12.57
2022-10-26T12:27:39.260Z,12.43
2022-10-26T12:28:39.172Z,12.49
2022-10-26T12:29:39.201Z,12.43
2022-10-26T12:30:39.329Z,12.77
2022-10-26T12:31:39.229Z,12.68
2022-10-26T12:32:41.571Z,12.65
2022-10-26T12:33:39.260Z,12.67
2022-10-26T12:34:39.246Z,12.68
2022-10-26T12:35:39.254Z,12.78
2022-10-26T12:36:39.176Z,13.19
2022-10-26T12:37:39.209Z,13.28
2022-10-26T12:38:39.267Z,13.28
2022-10-26T12:39:39.314Z,13.52
2022-10-26T12:40:39.291Z,13.64
2022-10-26T12:41:39.172Z,13.86
2022-10-26T12:42:39.193Z,13.63
2022-10-26T12:43:39.334Z,13.81
2022-10-26T12:44:39.168Z,13.79
2022-10-26T12:45:39.310Z,13.77
2022-10-26T12:46:39.309Z,13.97
2022-10-26T12:47:39.218Z,13.79
2022-10-26T12:48:39.839Z,13.98
2022-10-26T12:49:39.237Z,14.18
2022-10-26T12:50:39.237Z,14.06
2022-10-26T12:51:40.060Z,14.27
2022-10-26T12:52:39.253Z,14.33
2022-10-26T12:53:41.059Z,14.46
2022-10-26T12:54:39.295Z,14.45
2022-10-26T12:55:39.314Z,14.28
2022-10-26T12:56:39.171Z,14.34
2022-10-26T12:57:39.400Z,14.37
2022-10-26T12:58:39.212Z,14.46